Time;durP1;ratioP1;P1;durP2;ratioP2;P2;SDS_P1;SDS_P2;PMS_P1;PMS_P2;Temp;Humidity;BMP_temperature;BMP_pressure;BME280_temperature;BME280_humidity;BME280_pressure;Samples;Min_cycle;Max_cycle;Signal;HPM_P1;HPM_P2
2021/01/10 00:00:18;;;;;;;;;;;;;;;-1.68;86.29;98485.38;4926928;29;20028;-84
2021/01/10 00:02:44;;;;;;;10.63;6.38;;;;;;;-1.81;86.61;98494.22;4924628;29;19910;-83
2021/01/10 00:05:12;;;;;;;15.50;8.20;;;;;;;-1.83;87.09;98493.59;4923497;29;20028;-82
2021/01/10 00:07:39;;;;;;;12.73;8.93;;;;;;;-1.81;87.25;98493.38;4912056;29;20030;-88
2021/01/10 00:10:09;;;;;;;14.50;6.35;;;;;;;-1.82;86.72;98497.13;4908276;29;20039;-83
2021/01/10 00:12:36;;;;;;;10.35;6.10;;;;;;;-1.96;86.24;98471.28;4913895;29;20067;-85
2021/01/10 00:15:01;;;;;;;11.02;6.65;;;;;;;-1.90;85.95;98483.88;4918215;29;20476;-83
2021/01/10 00:17:27;;;;;;;12.32;5.93;;;;;;;-1.78;85.87;98490.28;4917866;29;20060;-86
2021/01/10 00:19:52;;;;;;;12.35;6.45;;;;;;;-1.74;85.63;98488.88;4901117;29;20028;-83
2021/01/10 00:22:19;;;;;;;15.82;6.35;;;;;;;-1.86;85.10;98469.06;4917637;29;20035;-84
2021/01/10 00:24:46;;;;;;;11.50;5.07;;;;;;;-1.89;84.64;98474.81;4901074;29;20032;-80
2021/01/10 00:27:14;;;;;;;10.65;6.13;;;;;;;-1.89;84.46;98482.88;4916874;29;20029;-82
2021/01/10 00:29:42;;;;;;;13.32;5.10;;;;;;;-1.93;84.85;98474.41;4917175;29;20032;-84
2021/01/10 00:32:08;;;;;;;17.10;5.30;;;;;;;-1.79;85.41;98485.97;4917072;29;20099;-83
2021/01/10 00:34:33;;;;;;;15.18;6.03;;;;;;;-1.88;84.78;98471.91;4909089;29;20120;-84
2021/01/10 00:36:59;;;;;;;13.20;6.32;;;;;;;-1.85;84.66;98476.06;4891731;29;20155;-84
2021/01/10 00:39:24;;;;;;;10.38;5.07;;;;;;;-1.68;84.47;98491.56;4900678;29;20394;-82
2021/01/10 00:41:50;;;;;;;10.70;6.00;;;;;;;-1.67;84.51;98492.38;4884331;29;20025;-85
2021/01/10 00:44:16;;;;;;;9.07;5.78;;;;;;;-1.77;83.94;98492.78;4882074;29;20096;-84
2021/01/10 00:46:42;;;;;;;11.98;4.85;;;;;;;-1.83;84.25;98492.78;4898208;29;20176;-84
2021/01/10 00:49:07;;;;;;;9.68;5.90;;;;;;;-1.87;84.57;98489.66;4881377;29;20032;-86
2021/01/10 00:51:32;;;;;;;11.23;5.55;;;;;;;-1.97;84.30;98473.16;4898032;29;20135;-83
2021/01/10 00:53:58;;;;;;;9.23;5.57;;;;;;;-1.78;84.06;98492.97;4913831;29;20032;-85
2021/01/10 00:56:23;;;;;;;;;;;;;;;-1.83;84.71;98498.13;4900341;29;20056;-86
2021/01/10 00:58:49;;;;;;;10.00;5.53;;;;;;;-1.75;84.45;98487.19;4916550;29;19927;-84
2021/01/10 01:01:14;;;;;;;10.35;5.70;;;;;;;-1.80;84.53;98503.91;4917160;29;20111;-84
2021/01/10 01:03:39;;;;;;;10.02;5.32;;;;;;;-1.76;84.47;98490.94;4917424;29;20470;-86
2021/01/10 01:06:12;;;;;;;9.00;6.35;;;;;;;-1.90;83.99;98473.16;4900145;29;20122;-85
2021/01/10 01:08:38;;;;;;;12.32;5.43;;;;;;;-1.81;84.02;98490.69;4917367;29;20047;-84
2021/01/10 01:11:03;;;;;;;10.60;5.88;;;;;;;-1.94;84.19;98483.47;4916967;29;20036;-83
2021/01/10 01:13:29;;;;;;;9.25;6.40;;;;;;;-1.86;84.33;98495.84;4916793;29;20024;-85
2021/01/10 01:15:54;;;;;;;11.25;6.38;;;;;;;-1.95;84.61;98483.69;4900109;29;20028;-86
2021/01/10 01:18:20;;;;;;;12.80;5.25;;;;;;;-1.82;84.61;98502.47;4900091;29;20466;-84
2021/01/10 01:20:45;;;;;;;9.55;5.45;;;;;;;-1.76;85.45;98481.03;4899785;29;20032;-85
2021/01/10 01:23:12;;;;;;;9.45;5.05;;;;;;;-1.75;84.10;98495.25;4899871;29;20028;-83
2021/01/10 01:25:37;;;;;;;12.20;6.15;;;;;;;-1.73;83.49;98493.22;4899934;29;20032;-85
2021/01/10 01:28:03;;;;;;;14.13;4.88;;;;;;;-1.91;83.49;98501.00;4916587;29;20028;-84
2021/01/10 01:30:29;;;;;;;9.30;5.50;;;;;;;-1.78;83.86;98503.69;4916263;29;20043;-89
2021/01/10 01:32:54;;;;;;;10.50;6.45;;;;;;;-1.80;83.57;98501.25;4916520;29;20016;-83
2021/01/10 01:35:20;;;;;;;;;;;;;;;-1.82;83.33;98502.47;4916952;29;20032;-86
2021/01/10 01:37:45;;;;;;;10.52;4.95;;;;;;;-1.97;83.50;98493.78;4916220;29;19929;-84
2021/01/10 01:40:11;;;;;;;9.90;5.60;;;;;;;-2.04;83.93;98495.63;4915118;29;20025;-84
2021/01/10 01:42:37;;;;;;;8.38;5.18;;;;;;;-1.93;84.23;98516.44;4915521;29;20509;-82
2021/01/10 01:45:07;;;;;;;10.30;5.93;;;;;;;-1.97;84.12;98509.88;4914917;29;20028;-80
2021/01/10 01:47:34;;;;;;;9.30;5.22;;;;;;;-2.06;84.60;98494.97;4898698;29;20032;-84
2021/01/10 01:50:00;;;;;;;7.70;5.20;;;;;;;-2.01;84.14;98497.88;4898958;29;20044;-82
2021/01/10 01:52:26;;;;;;;10.93;5.45;;;;;;;-1.99;84.02;98501.19;4916679;29;20083;-83
2021/01/10 01:54:53;;;;;;;5.65;4.65;;;;;;;-2.02;83.99;98489.00;4916352;29;20509;-81
2021/01/10 01:57:19;;;;;;;12.25;5.45;;;;;;;-1.91;83.89;98498.34;4899031;29;20063;-81
2021/01/10 01:59:45;;;;;;;9.98;5.75;;;;;;;-2.01;84.30;98497.88;4898540;29;20740;-81
2021/01/10 02:02:11;;;;;;;9.13;6.57;;;;;;;-2.03;84.63;98499.91;4916119;29;20040;-82
2021/01/10 02:04:47;;;;;;;9.73;4.63;;;;;;;-2.00;84.28;98495.00;4899493;29;20046;-83
2021/01/10 02:07:27;;;;;;;12.43;5.57;;;;;;;-1.81;84.57;98499.56;4917420;29;20032;-82
2021/01/10 02:10:04;;;;;;;8.80;5.72;;;;;;;-1.99;84.17;98498.50;4899230;29;20378;-84
2021/01/10 02:12:33;;;;;;;5.68;4.13;;;;;;;-2.03;84.41;98495.41;4919162;29;20036;-82
2021/01/10 02:15:00;;;;;;;8.23;4.32;;;;;;;-2.08;84.61;98497.88;4905169;29;20084;-82
2021/01/10 02:17:28;;;;;;;8.23;5.78;;;;;;;-2.17;84.80;98478.47;4919435;29;20111;-83
2021/01/10 02:20:04;;;;;;;8.48;4.95;;;;;;;-1.89;85.25;98491.72;4917104;29;20123;-85
2021/01/10 02:22:36;;;;;;;6.78;4.10;;;;;;;-1.97;84.30;98480.38;4919910;29;20028;-82
2021/01/10 02:25:03;;;;;;;8.00;4.78;;;;;;;-1.91;84.29;98498.34;4919519;29;20044;-81
2021/01/10 02:27:29;;;;;;;7.50;5.10;;;;;;;-1.91;84.38;98488.41;4920626;29;20028;-84
2021/01/10 02:29:55;;;;;;;9.82;5.72;;;;;;;-1.92;84.36;98494.00;4902989;29;20028;-86
2021/01/10 02:32:23;;;;;;;9.32;4.60;;;;;;;-1.88;84.14;98488.00;4903796;29;20032;-84
2021/01/10 02:34:51;;;;;;;12.15;5.43;;;;;;;-1.85;83.89;98498.31;4916494;29;20075;-84
2021/01/10 02:37:41;;;;;;;7.05;4.18;;;;;;;-1.77;83.32;98500.00;4915405;29;20028;-79
2021/01/10 02:40:13;;;;;;;12.20;4.53;;;;;;;-1.85;83.45;98492.97;4898787;29;20122;-84
2021/01/10 02:42:50;;;;;;;5.40;3.58;;;;;;;-1.81;83.39;98491.53;4898612;29;20032;-82
2021/01/10 02:45:20;;;;;;;6.90;3.88;;;;;;;-1.96;83.37;98490.06;4898557;29;20500;-81
2021/01/10 02:47:47;;;;;;;6.45;4.30;;;;;;;-1.92;83.50;98491.31;4915374;29;20035;-84
2021/01/10 02:50:17;;;;;;;8.95;4.28;;;;;;;-1.96;83.64;98487.38;4914572;29;20060;-81
2021/01/10 02:52:44;;;;;;;9.63;5.28;;;;;;;-1.89;83.73;98480.19;4898079;29;20028;-84
2021/01/10 02:55:10;;;;;;;4.25;3.17;;;;;;;-1.85;83.62;98481.44;4915196;29;20028;-81
2021/01/10 02:57:37;;;;;;;7.90;4.38;;;;;;;-1.84;83.52;98475.84;4917712;29;20050;-83
2021/01/10 03:00:06;;;;;;;7.55;5.25;;;;;;;-1.79;83.42;98475.25;4902048;29;20087;-83
2021/01/10 03:02:33;;;;;;;7.22;4.72;;;;;;;-1.75;83.87;98476.47;4919469;29;20443;-80
2021/01/10 03:05:00;;;;;;;7.22;5.05;;;;;;;-1.77;83.57;98473.19;4902481;29;20123;-85
2021/01/10 03:07:26;;;;;;;6.72;4.15;;;;;;;-1.88;83.23;98471.13;4902127;29;20036;-83
2021/01/10 03:09:51;;;;;;;7.07;4.05;;;;;;;-2.00;83.02;98467.38;4919183;29;20038;-88
2021/01/10 03:12:24;;;;;;;9.35;4.80;;;;;;;-1.91;83.18;98472.31;4919454;29;20095;-84
2021/01/10 03:14:50;;;;;;;10.02;4.82;;;;;;;-1.87;83.17;98467.41;4902965;29;20103;-82
2021/01/10 03:17:25;;;;;;;7.53;3.78;;;;;;;-1.84;82.97;98462.47;4919339;29;20114;-83
2021/01/10 03:19:51;;;;;;;5.78;3.45;;;;;;;-1.78;82.32;98463.50;4919693;29;20032;-86
2021/01/10 03:22:16;;;;;;;5.38;3.25;;;;;;;-1.82;82.70;98476.50;4901970;29;20040;-84
2021/01/10 03:24:42;;;;;;;7.75;3.92;;;;;;;-1.81;82.42;98467.41;4902146;29;20083;-82
2021/01/10 03:27:07;;;;;;;4.53;4.13;;;;;;;-1.78;82.84;98466.16;4918525;29;20028;-85
2021/01/10 03:29:32;;;;;;;5.10;3.70;;;;;;;-1.78;83.13;98466.16;4901662;29;20128;-84
2021/01/10 03:31:58;;;;;;;6.30;3.33;;;;;;;-1.89;82.89;98470.28;4918680;29;20034;-85
2021/01/10 03:34:23;;;;;;;4.13;3.47;;;;;;;-2.04;82.97;98456.25;4901793;29;20062;-84
2021/01/10 03:36:49;;;;;;;6.70;4.30;;;;;;;-1.88;83.10;98485.31;4918888;29;20449;-84
2021/01/10 03:39:14;;;;;;;11.57;3.70;;;;;;;-1.81;83.17;98453.19;4919613;29;20039;-84
2021/01/10 03:41:39;;;;;;;8.90;4.90;;;;;;;-1.81;82.74;98463.91;4901945;29;20032;-83
2021/01/10 03:44:05;;;;;;;6.60;3.10;;;;;;;-1.63;82.81;98458.78;4918611;29;20459;-85
2021/01/10 03:46:30;;;;;;;4.78;3.05;;;;;;;-1.72;82.22;98454.63;4901718;29;20034;-85
2021/01/10 03:48:56;;;;;;;6.55;3.58;;;;;;;-1.65;82.16;98468.88;4901664;29;20481;-85
2021/01/10 03:51:27;;;;;;;8.18;3.92;;;;;;;-1.61;81.81;98464.75;4898451;29;20112;-85
2021/01/10 03:53:52;;;;;;;8.32;5.07;;;;;;;-1.64;81.80;98483.94;4898986;29;20035;-82
2021/01/10 03:56:17;;;;;;;6.80;3.92;;;;;;;-1.79;82.06;98461.84;4898558;29;20024;-83
2021/01/10 03:58:43;;;;;;;4.60;3.53;;;;;;;-1.80;82.28;98474.44;4898742;29;20100;-81
2021/01/10 04:01:08;;;;;;;9.35;4.13;;;;;;;-1.73;82.46;98474.44;4898770;29;20111;-82
2021/01/10 04:03:34;;;;;;;12.10;4.60;;;;;;;-1.73;82.36;98485.16;4898706;29;20045;-82
2021/01/10 04:05:59;;;;;;;10.00;4.80;;;;;;;-1.77;82.77;98470.50;4898854;29;20068;-82
2021/01/10 04:08:24;;;;;;;7.65;3.78;;;;;;;-1.72;82.48;98473.38;4897250;29;20091;-83
2021/01/10 04:10:50;;;;;;;8.77;5.15;;;;;;;-1.73;81.89;98469.09;4897321;29;20092;-83
2021/01/10 04:13:15;;;;;;;6.47;3.90;;;;;;;-1.66;81.67;98478.75;4898609;29;20033;-83
2021/01/10 04:15:41;;;;;;;10.38;3.67;;;;;;;-1.81;81.85;98437.91;4881872;29;20462;-83
2021/01/10 04:18:06;;;;;;;5.70;3.75;;;;;;;-1.69;81.54;98468.44;4897365;29;20123;-84
2021/01/10 04:20:31;;;;;;;5.05;3.00;;;;;;;-1.50;82.19;98479.41;4896953;29;20037;-79
2021/01/10 04:22:57;;;;;;;7.22;4.70;;;;;;;-1.59;81.48;98478.78;4897032;29;20120;-83
2021/01/10 04:25:22;;;;;;;10.70;3.75;;;;;;;-1.63;81.83;98466.81;4897008;29;20115;-82
2021/01/10 04:27:47;;;;;;;9.55;4.47;;;;;;;-1.59;81.82;98465.38;4897070;29;20442;-84
2021/01/10 04:30:13;;;;;;;5.88;3.28;;;;;;;-1.60;81.33;98469.09;4897023;29;20025;-83
2021/01/10 04:32:39;;;;;;;9.13;4.25;;;;;;;-1.65;81.62;98460.81;4897064;29;20028;-83
2021/01/10 04:35:05;;;;;;;5.80;3.22;;;;;;;-1.54;82.24;98470.97;4897652;29;20092;-84
2021/01/10 04:37:30;;;;;;;7.55;4.38;;;;;;;-1.47;81.59;98479.81;4897195;29;20486;-83
2021/01/10 04:39:55;;;;;;;5.97;4.03;;;;;;;-1.45;82.27;98482.31;4898817;29;20035;-80
2021/01/10 04:42:22;;;;;;;4.32;3.05;;;;;;;-1.44;81.86;98473.22;4896725;29;20084;-80
2021/01/10 04:44:48;;;;;;;10.40;4.18;;;;;;;-1.43;81.39;98474.88;4896739;29;20024;-85
2021/01/10 04:47:14;;;;;;;7.97;4.22;;;;;;;-1.61;81.60;98470.13;4896593;29;20029;-80
2021/01/10 04:49:40;;;;;;;6.97;4.05;;;;;;;-1.72;81.80;98468.03;4897013;29;20025;-84
2021/01/10 04:52:07;;;;;;;8.05;3.80;;;;;;;-1.66;82.22;98477.97;4917106;29;20114;-83
2021/01/10 04:54:40;;;;;;;5.13;3.13;;;;;;;-1.64;82.07;98481.25;4900238;29;20127;-82
2021/01/10 04:57:10;;;;;;;4.82;2.83;;;;;;;-1.66;81.60;98486.81;4917002;29;20119;-83
2021/01/10 04:59:35;;;;;;;5.50;2.90;;;;;;;-1.67;82.32;98474.44;4901623;29;20060;-86
2021/01/10 05:02:05;;;;;;;5.88;3.00;;;;;;;-1.58;82.00;98493.84;4902284;29;20055;-82
2021/01/10 05:04:30;;;;;;;8.95;4.07;;;;;;;-1.66;82.02;98497.53;4900406;29;20174;-81
2021/01/10 05:06:58;;;;;;;5.85;3.63;;;;;;;-1.82;82.54;98473.00;4899725;29;20032;-81
2021/01/10 05:09:25;;;;;;;6.13;3.33;;;;;;;-1.60;82.17;98493.22;4900265;29;20032;-84
2021/01/10 05:11:50;;;;;;;4.03;2.95;;;;;;;-1.55;82.12;98488.06;4914295;29;20099;-84
2021/01/10 05:14:16;;;;;;;4.25;3.40;;;;;;;-1.42;81.80;98485.41;4899082;29;20028;-83
2021/01/10 05:16:42;;;;;;;8.05;3.97;;;;;;;-1.53;81.79;98485.16;4916566;29;20064;-83
2021/01/10 05:19:08;;;;;;;5.25;3.63;;;;;;;-1.56;81.71;98481.03;4886602;29;20032;-85
2021/01/10 05:21:34;;;;;;;5.97;3.15;;;;;;;-1.84;81.44;98451.72;4880423;29;20031;-81
2021/01/10 05:24:00;;;;;;;5.60;4.15;;;;;;;-1.71;82.04;98456.28;4880942;29;20033;-84
2021/01/10 05:26:36;;;;;;;;;;;;;;;-1.56;81.93;98473.00;4880819;29;20037;-81
2021/01/10 05:29:09;;;;;;;2.72;2.13;;;;;;;-1.70;81.30;98468.66;4880416;29;19925;-83
2021/01/10 05:31:44;;;;;;;5.25;2.70;;;;;;;-1.60;81.44;98466.41;4880434;29;20486;-85
2021/01/10 05:34:13;;;;;;;4.93;3.57;;;;;;;-1.66;81.99;98467.25;4881035;29;20035;-83
2021/01/10 05:36:39;;;;;;;5.78;2.83;;;;;;;-1.71;82.04;98477.72;4882256;29;20278;-79
2021/01/10 05:39:22;;;;;;;5.57;2.25;;;;;;;-1.67;82.29;98484.34;4897062;29;20506;-80
2021/01/10 05:41:51;;;;;;;5.25;3.17;;;;;;;-1.72;82.27;98474.22;4880250;29;20033;-83
2021/01/10 05:44:16;;;;;;;5.22;3.25;;;;;;;-1.83;82.45;98468.66;4880516;29;20076;-85
2021/01/10 05:46:42;;;;;;;5.20;2.78;;;;;;;-1.78;82.62;98472.34;4880587;29;20025;-82
2021/01/10 05:49:17;;;;;;;5.90;3.08;;;;;;;-1.83;82.56;98452.56;4880459;29;20497;-86
2021/01/10 05:51:42;;;;;;;5.80;3.10;;;;;;;-1.77;82.22;98460.63;4880456;29;20530;-87
2021/01/10 05:54:08;;;;;;;5.45;3.13;;;;;;;-1.67;82.33;98484.34;4880926;29;20086;-83
2021/01/10 05:56:33;;;;;;;6.75;3.25;;;;;;;-1.67;82.65;98473.63;4880558;29;20033;-80
2021/01/10 05:58:59;;;;;;;10.15;3.85;;;;;;;-1.58;83.08;98488.47;4880785;29;20029;-82
2021/01/10 06:01:25;;;;;;;5.03;3.28;;;;;;;-1.62;82.81;98471.13;4880392;29;20058;-81
2021/01/10 06:03:51;;;;;;;8.55;2.63;;;;;;;-1.67;82.29;98469.09;4879692;29;20470;-83
2021/01/10 06:06:17;;;;;;;5.45;3.42;;;;;;;-1.60;82.62;98479.81;4879960;29;20096;-84
2021/01/10 06:08:43;;;;;;;3.88;2.75;;;;;;;-1.76;82.33;98464.13;4898727;29;20130;-79
2021/01/10 06:11:25;;;;;;;6.40;3.85;;;;;;;-1.52;82.22;98486.81;4915346;29;20032;-77
2021/01/10 06:13:54;;;;;;;5.78;3.47;;;;;;;-1.43;81.99;98496.31;4897766;29;20020;-77
2021/01/10 06:16:23;;;;;;;7.40;5.20;;;;;;;-1.42;82.13;98498.81;4902215;29;20079;-84
2021/01/10 06:18:52;;;;;;;14.27;6.05;;;;;;;-1.47;82.24;98484.38;4898616;29;20437;-77
2021/01/10 06:21:20;;;;;;;5.70;4.32;;;;;;;-1.37;81.56;98496.31;4898737;29;20039;-77
2021/01/10 06:23:48;;;;;;;5.68;3.65;;;;;;;-1.22;82.77;98494.25;4916761;29;20397;-76
2021/01/10 06:26:17;;;;;;;4.78;3.83;;;;;;;-1.23;82.03;98498.00;4917659;29;20035;-77
2021/01/10 06:28:49;;;;;;;8.50;5.55;;;;;;;-1.23;81.74;98484.56;4919362;29;20036;-77
2021/01/10 06:31:21;;;;;;;12.10;5.05;;;;;;;-1.27;81.11;98486.00;4920253;29;20063;-79
2021/01/10 06:33:52;;;;;;;8.65;5.65;;;;;;;-1.23;81.64;98498.00;4900272;29;20080;-76
2021/01/10 06:36:19;;;;;;;6.95;4.00;;;;;;;-1.12;81.63;98493.84;4921166;29;20107;-79
2021/01/10 06:38:51;;;;;;;7.72;3.42;;;;;;;-1.13;81.99;98493.00;4918704;29;20112;-79
2021/01/10 06:41:19;;;;;;;5.95;3.42;;;;;;;-1.16;80.99;98488.06;4915822;29;20062;-77
2021/01/10 06:43:50;;;;;;;4.32;2.78;;;;;;;-1.17;81.31;98483.75;4914212;29;20494;-79
2021/01/10 06:46:16;;;;;;;7.30;4.82;;;;;;;-1.14;81.39;98480.66;4914268;29;20426;-83
2021/01/10 06:48:42;;;;;;;7.75;3.33;;;;;;;-1.27;81.57;98479.81;4914332;29;20482;-77
2021/01/10 06:51:08;;;;;;;6.53;4.50;;;;;;;-1.29;82.99;98458.56;4896521;29;20048;-78
2021/01/10 06:53:33;;;;;;;4.85;3.38;;;;;;;-1.25;82.00;98467.84;4914175;29;20039;-77
2021/01/10 06:55:59;;;;;;;;;;;;;;;-1.23;82.01;98476.53;4914691;29;20055;-80
2021/01/10 06:58:24;;;;;;;5.10;3.17;;;;;;;-1.15;82.93;98480.84;4897109;29;19922;-79
2021/01/10 07:00:50;;;;;;;;;;;;;;;-1.14;82.26;98474.44;4897259;29;20091;-78
2021/01/10 07:03:16;;;;;;;6.05;2.95;;;;;;;-1.21;82.26;98470.94;4914125;29;19922;-78
2021/01/10 07:05:57;;;;;;;6.05;3.45;;;;;;;-1.02;81.67;98488.06;4897129;29;20024;-79
2021/01/10 07:08:35;;;;;;;6.00;3.20;;;;;;;-1.00;81.46;98483.31;4880273;29;20043;-78
2021/01/10 07:11:23;;;;;;;7.75;4.40;;;;;;;-0.95;81.68;98488.88;4895167;29;20386;-81
2021/01/10 07:14:12;;;;;;;7.38;3.50;;;;;;;-0.95;81.64;98470.91;4887210;29;20053;-76
2021/01/10 07:16:39;;;;;;;6.43;4.10;;;;;;;-0.96;81.73;98482.69;4894958;29;20036;-76
2021/01/10 07:19:11;;;;;;;6.78;3.83;;;;;;;-0.98;81.97;98470.50;4895033;29;20029;-77
2021/01/10 07:21:45;;;;;;;5.72;4.13;;;;;;;-1.01;82.10;98465.56;4877985;29;20084;-78
2021/01/10 07:24:13;;;;;;;7.63;4.13;;;;;;;-0.90;82.37;98479.16;4894968;29;20028;-76
2021/01/10 07:26:49;;;;;;;8.95;4.85;;;;;;;-0.93;82.36;98481.44;4878003;29;20037;-76
2021/01/10 07:29:27;;;;;;;6.25;3.47;;;;;;;-0.76;81.93;98479.97;4878097;29;20032;-77
2021/01/10 07:31:54;;;;;;;8.43;4.88;;;;;;;-0.85;81.96;98478.53;4894692;29;20051;-77
2021/01/10 07:34:20;;;;;;;15.25;7.88;;;;;;;-0.88;82.38;98468.22;4894964;29;20025;-78
2021/01/10 07:36:46;;;;;;;12.63;6.65;;;;;;;-0.79;82.43;98491.94;4894641;29;20055;-78
2021/01/10 07:39:12;;;;;;;10.98;6.03;;;;;;;-0.82;82.21;98484.31;4894862;29;20132;-78
2021/01/10 07:41:37;;;;;;;9.15;5.43;;;;;;;-0.77;82.26;98480.97;4895092;29;20115;-76
2021/01/10 07:44:03;;;;;;;;;;;;;;;-0.51;82.21;98505.09;4881080;29;20024;-80
2021/01/10 07:46:51;;;;;;;11.73;4.75;;;;;;;-0.44;81.46;98497.84;4881434;29;20345;-78
2021/01/10 07:49:22;;;;;;;7.72;4.10;;;;;;;-0.42;81.45;98506.50;4881427;29;20149;-76
2021/01/10 07:51:49;;;;;;;4.35;3.53;;;;;;;-0.43;81.63;98520.97;4898264;29;20060;-80
2021/01/10 07:54:15;;;;;;;7.53;4.28;;;;;;;-0.53;81.79;98519.78;4898517;29;20517;-77
2021/01/10 07:56:41;;;;;;;10.57;5.45;;;;;;;-0.50;81.63;98530.91;4898740;29;20040;-77
2021/01/10 07:59:16;;;;;;;10.25;4.53;;;;;;;-0.46;81.44;98534.00;4898892;29;20394;-76
2021/01/10 08:01:51;;;;;;;7.70;4.82;;;;;;;-0.49;81.16;98529.88;4899626;29;20028;-81
2021/01/10 08:04:33;;;;;;;6.78;4.28;;;;;;;-0.37;80.50;98530.88;4900054;29;20497;-75
2021/01/10 08:07:00;;;;;;;11.35;4.97;;;;;;;-0.24;78.29;98544.28;4900297;29;20032;-76
2021/01/10 08:09:35;;;;;;;4.68;4.00;;;;;;;-0.15;77.22;98532.25;4897889;29;20068;-76
2021/01/10 08:12:00;;;;;;;5.60;3.90;;;;;;;-0.11;76.92;98536.16;4897777;29;20029;-78
2021/01/10 08:14:26;;;;;;;6.32;4.18;;;;;;;-0.01;76.59;98541.09;4880842;29;20036;-76
2021/01/10 08:16:52;;;;;;;11.57;5.63;;;;;;;-0.04;75.91;98550.41;4897566;29;20036;-75
2021/01/10 08:19:17;;;;;;;11.10;7.90;;;;;;;0.02;75.28;98553.28;4897635;29;20029;-76
2021/01/10 08:21:43;;;;;;;;;;;;;;;0.11;74.96;98570.81;4911883;29;20039;-76
2021/01/10 08:24:09;;;;;;;8.38;5.53;;;;;;;0.08;74.63;98568.56;4908608;29;19923;-77
2021/01/10 08:26:40;;;;;;;4.80;3.20;;;;;;;0.09;74.45;98568.34;4908354;29;20037;-76
2021/01/10 08:29:07;;;;;;;5.43;3.42;;;;;;;0.04;74.53;98561.94;4910292;29;20176;-76
2021/01/10 08:31:34;;;;;;;9.15;3.40;;;;;;;0.16;74.62;98573.72;4904656;29;20023;-75
2021/01/10 08:34:00;;;;;;;7.43;3.15;;;;;;;0.12;74.23;98572.47;4904288;29;20038;-78
2021/01/10 08:36:26;;;;;;;7.00;4.68;;;;;;;0.01;74.26;98555.13;4906276;29;20397;-77
2021/01/10 08:38:59;;;;;;;8.07;4.65;;;;;;;0.19;74.30;98573.28;4926871;29;20027;-85
2021/01/10 08:41:30;;;;;;;4.68;2.88;;;;;;;0.14;74.47;98565.00;4908757;29;20023;-83
2021/01/10 08:44:10;;;;;;;4.63;2.90;;;;;;;0.17;74.95;98561.88;4944192;29;20031;-83
2021/01/10 08:46:39;;;;;;;7.80;4.20;;;;;;;0.09;75.43;98562.97;4939735;29;20744;-84
2021/01/10 08:49:04;;;;;;;6.03;4.13;;;;;;;0.10;75.44;98583.44;4923157;29;20028;-76
2021/01/10 08:51:33;;;;;;;6.05;3.65;;;;;;;0.09;75.28;98559.47;4918382;29;20048;-76
2021/01/10 08:53:59;;;;;;;5.57;4.07;;;;;;;0.11;75.52;98565.44;4928582;29;20027;-77
2021/01/10 08:56:25;;;;;;;8.77;3.97;;;;;;;0.09;76.07;98562.97;4928752;29;20016;-77
2021/01/10 08:58:56;;;;;;;9.88;5.55;;;;;;;0.10;76.48;98577.22;4923909;29;20028;-79
2021/01/10 09:01:25;;;;;;;8.18;4.93;;;;;;;0.12;76.84;98572.47;4909652;29;20020;-82
2021/01/10 09:04:04;;;;;;;5.47;4.35;;;;;;;0.08;77.08;98571.25;4904820;29;20023;-80
2021/01/10 09:07:10;;;;;;;7.43;4.57;;;;;;;0.05;77.65;98577.03;4920791;29;20024;-79
2021/01/10 09:09:46;;;;;;;12.32;5.10;;;;;;;0.02;78.09;98581.00;4921598;29;20036;-76
2021/01/10 09:12:21;;;;;;;6.57;4.68;;;;;;;0.03;79.31;98563.00;4906593;29;20024;-77
2021/01/10 09:14:49;;;;;;;11.43;5.25;;;;;;;-0.09;79.60;98569.03;4921763;29;20028;-76
2021/01/10 09:17:21;;;;;;;5.30;3.67;;;;;;;-0.16;79.71;98554.78;4921967;29;20552;-86
2021/01/10 09:19:51;;;;;;;9.00;5.18;;;;;;;-0.06;80.76;98563.22;4922722;29;20039;-77
2021/01/10 09:22:17;;;;;;;9.38;5.47;;;;;;;-0.05;80.62;98562.19;4900742;29;20078;-77
2021/01/10 09:24:43;;;;;;;8.35;4.95;;;;;;;0.05;80.61;98571.66;4907393;29;20028;-77
2021/01/10 09:27:12;;;;;;;12.73;5.13;;;;;;;-0.02;80.75;98577.91;4922473;29;20421;-77
2021/01/10 09:29:39;;;;;;;5.53;4.47;;;;;;;-0.02;81.55;98585.97;4923749;29;20107;-79
2021/01/10 09:32:05;;;;;;;7.35;5.63;;;;;;;-0.13;81.87;98564.31;4901493;29;20083;-78
2021/01/10 09:34:31;;;;;;;8.68;5.40;;;;;;;-0.10;82.13;98564.72;4921923;29;20030;-76
2021/01/10 09:37:07;;;;;;;8.20;5.05;;;;;;;-0.02;82.81;98567.16;4904277;29;20036;-77
2021/01/10 09:39:38;;;;;;;7.03;5.15;;;;;;;-0.10;83.40;98548.56;4923005;29;20047;-78
2021/01/10 09:42:04;;;;;;;11.05;6.97;;;;;;;-0.22;84.11;98558.31;4906035;29;20464;-80
2021/01/10 09:44:32;;;;;;;10.63;7.00;;;;;;;-0.24;84.49;98573.84;4907315;29;20115;-85
2021/01/10 09:46:58;;;;;;;12.18;6.57;;;;;;;-0.21;85.74;98562.66;4922013;29;20056;-82
2021/01/10 09:49:31;;;;;;;10.05;6.03;;;;;;;-0.30;86.25;98573.84;4908494;29;20508;-85
2021/01/10 09:52:12;;;;;;;9.27;6.43;;;;;;;-0.44;87.53;98550.75;4918342;29;20040;-81
2021/01/10 09:54:38;;;;;;;10.20;6.88;;;;;;;-0.42;88.23;98557.56;4934496;29;20024;-84
2021/01/10 09:57:24;;;;;;;7.20;5.78;;;;;;;-0.36;88.23;98551.34;4915292;29;20107;-82
2021/01/10 09:59:55;;;;;;;11.35;6.15;;;;;;;-0.36;88.14;98540.59;4904607;29;20535;-84
2021/01/10 10:02:22;;;;;;;9.82;6.05;;;;;;;-0.43;88.55;98541.63;4916407;29;20032;-86
2021/01/10 10:04:49;;;;;;;9.23;6.38;;;;;;;-0.42;89.07;98536.06;4920799;29;20026;-82
2021/01/10 10:07:40;;;;;;;13.95;8.38;;;;;;;-0.42;89.43;98535.22;4924938;29;20481;-84
2021/01/10 10:10:10;;;;;;;13.93;7.82;;;;;;;-0.50;89.69;98512.09;4912303;29;20028;-82
2021/01/10 10:12:35;;;;;;;11.05;7.18;;;;;;;-0.38;90.34;98515.81;4912090;29;20172;-82
2021/01/10 10:15:10;;;;;;;13.52;7.82;;;;;;;-0.51;89.21;98512.31;4904612;29;20035;-85
2021/01/10 10:17:37;;;;;;;11.93;7.85;;;;;;;-0.49;89.35;98521.00;4922671;29;20036;-83
2021/01/10 10:20:07;;;;;;;10.80;7.78;;;;;;;-0.49;89.11;98512.94;4904929;29;20028;-84
2021/01/10 10:22:34;;;;;;;12.85;7.82;;;;;;;-0.37;89.07;98513.91;4901529;29;20032;-83
2021/01/10 10:25:01;;;;;;;11.90;6.90;;;;;;;-0.37;88.66;98524.66;4920885;29;20055;-85
2021/01/10 10:28:01;;;;;;;;;;;;;;;;;;;;;
2021/01/10 10:30:19;;;;;;;10.82;5.90;;;;;;;-0.32;89.05;98544.53;4918295;29;20776;-84
2021/01/10 10:32:47;;;;;;;12.85;8.05;;;;;;;-0.63;89.93;98509.47;4927679;29;20031;-84
2021/01/10 10:35:45;;;;;;;14.80;8.15;;;;;;;-0.49;90.92;98527.19;4907543;29;20032;-84
2021/01/10 10:38:16;;;;;;;12.60;7.68;;;;;;;-0.49;91.09;98505.69;4914959;29;20043;-80
2021/01/10 10:40:42;;;;;;;12.50;7.85;;;;;;;-0.36;90.71;98520.97;4926663;29;20039;-82
2021/01/10 10:43:07;;;;;;;17.52;8.20;;;;;;;-0.52;89.46;98487.31;4911744;29;20076;-82
2021/01/10 10:45:33;;;;;;;;;;;;;;;-0.36;90.04;98505.66;4909045;29;20079;-81
2021/01/10 10:47:58;;;;;;;15.93;9.13;;;;;;;-0.40;90.09;98503.59;4925055;29;20000;-82
2021/01/10 10:50:24;;;;;;;16.05;9.60;;;;;;;-0.38;90.48;98488.09;4907563;29;20131;-84
2021/01/10 10:52:53;;;;;;;15.63;8.88;;;;;;;-0.40;90.40;98472.19;4908771;29;20497;-85
2021/01/10 10:55:21;;;;;;;14.80;10.40;;;;;;;-0.39;89.74;98489.97;4909980;29;20485;-80
2021/01/10 10:57:47;;;;;;;14.82;8.75;;;;;;;-0.39;90.76;98486.44;4930036;29;20040;-80
2021/01/10 11:00:13;;;;;;;12.57;7.80;;;;;;;-0.34;90.57;98476.72;4933761;29;20079;-81
2021/01/10 11:02:38;;;;;;;15.50;8.98;;;;;;;-0.34;90.11;98476.72;4924059;29;20492;-84
2021/01/10 11:05:05;;;;;;;13.27;8.57;;;;;;;-0.39;90.85;98473.84;4916074;29;20036;-84
2021/01/10 11:07:33;;;;;;;16.60;8.25;;;;;;;-0.38;90.84;98467.44;4928353;29;20762;-83
2021/01/10 11:09:59;;;;;;;16.70;9.65;;;;;;;-0.39;90.77;98464.97;4928808;29;20032;-83
2021/01/10 11:12:24;;;;;;;18.95;10.25;;;;;;;-0.32;90.91;98458.53;4912081;29;20039;-82
2021/01/10 11:14:53;;;;;;;16.85;9.45;;;;;;;-0.26;90.82;98473.78;4909288;29;20056;-83
2021/01/10 11:17:18;;;;;;;12.38;8.75;;;;;;;-0.28;90.93;98469.69;4926665;29;20023;-85
2021/01/10 11:19:44;;;;;;;15.57;10.05;;;;;;;-0.21;90.56;98448.94;4911364;29;20031;-84
2021/01/10 11:22:12;;;;;;;13.13;8.73;;;;;;;-0.23;90.61;98451.88;4915001;29;20027;-87
2021/01/10 11:24:38;;;;;;;11.40;7.32;;;;;;;-0.28;91.12;98459.72;4907373;29;20036;-87
2021/01/10 11:27:03;;;;;;;14.30;8.93;;;;;;;-0.23;91.12;98461.78;4934977;29;20046;-87
2021/01/10 11:29:32;;;;;;;16.48;7.63;;;;;;;-0.27;90.88;98471.31;4910689;29;20406;-83
2021/01/10 11:31:58;;;;;;;14.32;8.68;;;;;;;-0.38;91.63;98458.56;4916058;29;20028;-85
2021/01/10 11:34:23;;;;;;;16.35;7.78;;;;;;;-0.39;91.52;98462.28;4907200;29;20111;-85
2021/01/10 11:36:52;;;;;;;15.80;9.50;;;;;;;-0.43;91.30;98456.50;4913990;29;20039;-84
2021/01/10 11:39:19;;;;;;;15.93;10.27;;;;;;;-0.42;91.36;98460.00;4932946;29;20031;-82